createdAt,value
2022-10-23T00:01:41.089Z,5.20
2022-10-23T00:04:19.866Z,6.07
2022-10-23T00:06:47.782Z,6.03
2022-10-23T00:09:17.663Z,5.88
2022-10-23T00:11:47.480Z,5.88
2022-10-23T00:14:15.607Z,5.57
2022-10-23T00:16:42.267Z,5.45
2022-10-23T00:19:08.978Z,5.68
2022-10-23T00:21:36.027Z,5.40
2022-10-23T00:24:02.971Z,6.00
2022-10-23T00:26:29.726Z,6.00
2022-10-23T00:28:56.412Z,6.28
2022-10-23T00:31:24.105Z,5.95
2022-10-23T00:33:51.114Z,6.63
2022-10-23T00:36:19.643Z,6.05
2022-10-23T00:38:46.894Z,5.63
2022-10-23T00:41:18.090Z,5.38
2022-10-23T00:44:11.303Z,5.15
2022-10-23T00:46:39.119Z,5.50
2022-10-23T00:49:06.961Z,5.65
2022-10-23T00:51:44.220Z,5.57
2022-10-23T00:54:29.158Z,5.15
2022-10-23T00:57:03.755Z,5.45
2022-10-23T00:59:31.404Z,5.32
2022-10-23T01:01:59.133Z,5.53
2022-10-23T01:04:27.736Z,5.20
2022-10-23T01:07:16.471Z,5.45
2022-10-23T01:09:58.090Z,5.50
2022-10-23T01:12:42.889Z,5.68
2022-10-23T01:15:09.722Z,5.63
2022-10-23T01:17:48.854Z,5.35
2022-10-23T01:20:53.546Z,5.50
2022-10-23T01:23:46.221Z,5.13
2022-10-23T01:29:23.128Z,5.17
2022-10-23T01:32:04.157Z,4.93
2022-10-23T01:34:41.538Z,4.82
2022-10-23T01:37:13.583Z,4.78
2022-10-23T01:39:47.499Z,5.45
2022-10-23T01:42:21.855Z,5.57
2022-10-23T01:45:02.999Z,4.68
2022-10-23T01:47:39.461Z,5.13
2022-10-23T01:50:11.601Z,6.03
2022-10-23T01:52:40.733Z,6.20
2022-10-23T01:55:11.690Z,5.72
2022-10-23T01:57:41.574Z,5.40
2022-10-23T02:00:14.963Z,6.57
2022-10-23T02:03:08.901Z,6.10
2022-10-23T02:05:36.160Z,5.57
2022-10-23T02:08:05.191Z,6.20
2022-10-23T02:10:51.917Z,6.13
2022-10-23T02:13:43.999Z,6.22
2022-10-23T02:16:40.774Z,6.00
2022-10-23T02:19:38.595Z,6.32
2022-10-23T02:22:32.907Z,5.80
2022-10-23T02:25:20.482Z,5.93
2022-10-23T02:27:53.649Z,6.38
2022-10-23T02:30:24.075Z,5.80
2022-10-23T02:33:07.891Z,5.30
2022-10-23T02:35:34.939Z,5.57
2022-10-23T02:38:50.414Z,5.82
2022-10-23T02:41:22.999Z,6.05
2022-10-23T02:44:01.924Z,5.55
2022-10-23T02:47:18.148Z,5.57
2022-10-23T02:49:58.575Z,5.82
2022-10-23T02:53:00.958Z,6.53
2022-10-23T02:55:53.403Z,6.97
2022-10-23T02:58:29.555Z,6.15
2022-10-23T03:01:04.272Z,5.82
2022-10-23T03:03:35.051Z,5.85
2022-10-23T03:06:02.552Z,6.00
2022-10-23T03:08:29.369Z,5.18
2022-10-23T03:10:56.186Z,5.65
2022-10-23T03:13:23.751Z,6.50
2022-10-23T03:15:50.471Z,6.95
2022-10-23T03:18:17.141Z,5.82
2022-10-23T03:20:50.252Z,6.50
2022-10-23T03:23:17.025Z,5.40
2022-10-23T03:25:43.683Z,5.78
2022-10-23T03:28:20.732Z,5.72
2022-10-23T03:30:47.487Z,5.93
2022-10-23T03:33:14.252Z,6.03
2022-10-23T03:35:40.947Z,6.68
2022-10-23T03:38:08.032Z,6.57
2022-10-23T03:40:35.072Z,6.22
2022-10-23T03:43:01.884Z,6.30
2022-10-23T03:45:30.826Z,5.95
2022-10-23T03:47:57.495Z,6.30
2022-10-23T03:50:24.375Z,5.72
2022-10-23T03:52:51.101Z,6.65
2022-10-23T03:55:17.792Z,5.80
2022-10-23T03:57:44.450Z,5.80
2022-10-23T04:00:11.596Z,5.28
2022-10-23T04:02:44.306Z,5.55
2022-10-23T04:05:12.018Z,5.35
2022-10-23T04:07:40.816Z,5.65
2022-10-23T04:10:07.876Z,5.57
2022-10-23T04:12:35.058Z,5.57
2022-10-23T04:15:01.749Z,5.18
2022-10-23T04:20:00.012Z,6.17
2022-10-23T04:22:28.490Z,5.80
2022-10-23T04:24:56.133Z,5.88
2022-10-23T04:27:23.067Z,6.28
2022-10-23T04:29:49.928Z,6.35
2022-10-23T04:32:16.654Z,5.72
2022-10-23T04:34:44.300Z,5.68
2022-10-23T04:37:10.982Z,6.30
2022-10-23T04:39:38.262Z,6.45
2022-10-23T04:42:05.099Z,5.55
2022-10-23T04:44:31.752Z,5.93
2022-10-23T04:46:58.417Z,6.07
2022-10-23T04:49:25.259Z,5.00
2022-10-23T04:52:24.331Z,6.53
2022-10-23T04:55:25.383Z,5.93
2022-10-23T04:58:06.484Z,5.80
2022-10-23T05:00:33.239Z,6.93
2022-10-23T05:03:01.092Z,6.53
2022-10-23T05:05:34.522Z,6.45
2022-10-23T05:08:20.863Z,6.57
2022-10-23T05:11:06.119Z,7.13
2022-10-23T05:13:38.464Z,7.38
2022-10-23T05:16:05.488Z,6.38
2022-10-23T05:18:45.579Z,6.80
2022-10-23T05:21:16.658Z,6.82
2022-10-23T05:23:44.362Z,7.30
2022-10-23T05:26:13.587Z,7.20
2022-10-23T05:28:44.489Z,7.60
2022-10-23T05:31:15.394Z,6.85
2022-10-23T05:33:45.475Z,7.63
2022-10-23T05:36:13.663Z,7.97
2022-10-23T05:38:41.089Z,7.53
2022-10-23T05:41:15.453Z,8.10
2022-10-23T05:43:42.582Z,7.22
2022-10-23T05:46:29.574Z,7.43
2022-10-23T05:49:10.309Z,7.63
2022-10-23T05:52:12.779Z,6.53
2022-10-23T05:54:58.183Z,7.25
2022-10-23T05:57:57.609Z,7.72
2022-10-23T06:00:47.175Z,7.18
2022-10-23T06:03:34.080Z,7.13
2022-10-23T06:06:01.617Z,7.47
2022-10-23T06:08:39.463Z,7.70
2022-10-23T06:11:11.214Z,7.43
2022-10-23T06:13:38.999Z,6.85
2022-10-23T06:16:13.651Z,8.60
2022-10-23T06:18:41.533Z,8.13
2022-10-23T06:21:13.569Z,8.47
2022-10-23T06:23:42.858Z,7.65
2022-10-23T06:26:29.823Z,8.43
2022-10-23T06:29:22.861Z,7.75
2022-10-23T06:31:50.640Z,7.43
2022-10-23T06:34:17.750Z,7.57
2022-10-23T06:36:46.164Z,7.65
2022-10-23T06:39:32.206Z,7.55
2022-10-23T06:42:14.483Z,7.72
2022-10-23T06:44:57.150Z,7.32
2022-10-23T06:47:46.838Z,7.97
2022-10-23T06:50:33.641Z,7.53
2022-10-23T06:53:06.039Z,7.97
2022-10-23T06:55:34.647Z,7.03
2022-10-23T06:58:02.656Z,8.27
2022-10-23T07:00:29.472Z,7.75
2022-10-23T07:02:56.375Z,7.95
2022-10-23T07:05:23.117Z,7.55
2022-10-23T07:07:49.867Z,7.38
2022-10-23T07:10:23.491Z,7.22
2022-10-23T07:13:00.724Z,8.75
2022-10-23T07:15:39.726Z,7.83
2022-10-23T07:18:14.586Z,8.43
2022-10-23T07:21:01.602Z,7.43
2022-10-23T07:23:30.257Z,7.68
2022-10-23T07:26:06.394Z,7.70
2022-10-23T07:28:34.524Z,6.63
2022-10-23T07:31:01.338Z,6.45
2022-10-23T07:33:48.383Z,7.13
2022-10-23T07:36:18.528Z,7.10
2022-10-23T07:38:45.479Z,6.82
2022-10-23T07:41:13.081Z,7.18
2022-10-23T07:43:40.037Z,7.22
2022-10-23T07:46:09.804Z,7.78
2022-10-23T07:48:40.090Z,7.68
2022-10-23T07:51:11.862Z,6.75
2022-10-23T07:53:43.718Z,6.93
2022-10-23T07:56:31.836Z,7.68
2022-10-23T07:59:16.619Z,6.70
2022-10-23T08:01:51.465Z,7.20
2022-10-23T08:04:21.561Z,7.15
2022-10-23T08:07:20.551Z,6.63
2022-10-23T08:09:49.232Z,6.80
2022-10-23T08:12:16.073Z,6.70
2022-10-23T08:14:43.728Z,7.35
2022-10-23T08:17:11.620Z,7.03
2022-10-23T08:20:13.535Z,7.97
2022-10-23T08:22:42.686Z,6.50
2022-10-23T08:25:10.624Z,6.13
2022-10-23T08:27:38.123Z,6.32
2022-10-23T08:30:06.037Z,6.68
2022-10-23T08:32:32.771Z,6.25
2022-10-23T08:35:01.386Z,6.45
2022-10-23T08:37:30.981Z,6.47
2022-10-23T08:39:58.081Z,6.63
2022-10-23T08:42:46.762Z,5.72
2022-10-23T08:45:31.425Z,6.22
2022-10-23T08:48:30.499Z,6.00
2022-10-23T08:51:28.956Z,6.45
2022-10-23T08:54:16.663Z,6.75
2022-10-23T08:56:49.419Z,6.28
2022-10-23T08:59:27.800Z,6.88
2022-10-23T09:02:12.683Z,5.72
2022-10-23T09:04:40.195Z,5.78
2022-10-23T09:07:21.389Z,6.05
2022-10-23T09:10:07.880Z,6.45
2022-10-23T09:12:34.584Z,6.35
2022-10-23T09:15:28.279Z,5.65
2022-10-23T09:18:01.754Z,5.65
2022-10-23T09:20:36.587Z,5.82
2022-10-23T09:23:24.615Z,4.97
2022-10-23T09:25:56.786Z,5.82
2022-10-23T09:28:27.122Z,5.60
2022-10-23T09:30:53.979Z,4.78
2022-10-23T09:33:28.183Z,4.90
2022-10-23T09:35:59.629Z,5.10
2022-10-23T09:38:31.450Z,5.53
2022-10-23T09:41:17.624Z,5.70
2022-10-23T09:43:44.526Z,4.75
2022-10-23T09:46:13.551Z,5.78
2022-10-23T09:48:42.218Z,5.03
2022-10-23T09:51:21.332Z,4.82
2022-10-23T09:53:57.410Z,4.97
2022-10-23T09:56:31.966Z,4.75
2022-10-23T09:59:03.114Z,5.03
2022-10-23T10:01:32.682Z,4.90
2022-10-23T10:04:30.422Z,5.28
2022-10-23T10:06:58.500Z,5.07
2022-10-23T10:09:25.742Z,4.78
2022-10-23T10:11:59.141Z,4.80
2022-10-23T10:14:47.079Z,4.78
2022-10-23T10:17:39.326Z,4.75
2022-10-23T10:20:12.154Z,4.07
2022-10-23T10:22:56.398Z,4.50
2022-10-23T10:25:36.009Z,5.32
2022-10-23T10:28:22.013Z,4.80
2022-10-23T10:31:08.562Z,4.75
2022-10-23T10:33:40.961Z,4.60
2022-10-23T10:38:49.294Z,4.72
2022-10-23T10:41:21.880Z,4.87
2022-10-23T10:44:01.853Z,4.45
2022-10-23T10:46:47.214Z,6.28
2022-10-23T10:49:26.906Z,4.15
2022-10-23T10:52:54.559Z,5.07
2022-10-23T10:55:33.532Z,4.40
2022-10-23T10:58:06.563Z,5.53
2022-10-23T11:00:35.318Z,4.65
2022-10-23T11:03:37.645Z,4.35
2022-10-23T11:06:15.011Z,4.50
2022-10-23T11:08:56.273Z,4.13
2022-10-23T11:11:32.014Z,4.25
2022-10-23T11:13:59.035Z,5.15
2022-10-23T11:16:35.988Z,5.18
2022-10-23T11:19:28.773Z,4.20
2022-10-23T11:25:06.704Z,4.38
2022-10-23T11:27:45.734Z,3.38
2022-10-23T11:30:29.188Z,4.35
2022-10-23T11:33:27.532Z,4.07
2022-10-23T11:36:14.908Z,4.20
2022-10-23T11:38:45.527Z,3.45
2022-10-23T11:41:33.786Z,3.97
2022-10-23T11:44:03.971Z,3.40
2022-10-23T11:46:33.806Z,3.78
2022-10-23T11:49:02.953Z,3.40
2022-10-23T11:51:29.646Z,4.00
2022-10-23T11:54:28.943Z,3.30
2022-10-23T11:57:10.290Z,3.60
2022-10-23T11:59:55.701Z,4.80
2022-10-23T12:02:42.194Z,3.83
2022-10-23T12:05:29.866Z,3.88
2022-10-23T12:07:59.548Z,3.78
2022-10-23T12:10:43.896Z,3.92
2022-10-23T12:13:37.348Z,3.83
2022-10-23T12:16:07.733Z,3.35
2022-10-23T12:18:46.302Z,2.90
2022-10-23T12:21:22.636Z,3.22
2022-10-23T12:23:59.595Z,3.08
2022-10-23T12:26:45.649Z,3.30
2022-10-23T12:29:28.270Z,3.30
2022-10-23T12:32:21.374Z,4.07
2022-10-23T12:35:18.108Z,2.95
2022-10-23T12:38:20.185Z,3.05
2022-10-23T12:40:53.367Z,3.60
2022-10-23T12:43:35.721Z,3.08
2022-10-23T12:46:17.812Z,3.38
2022-10-23T12:48:49.472Z,3.22
2022-10-23T12:51:36.423Z,3.03
2022-10-23T12:54:04.898Z,3.35
2022-10-23T12:56:36.803Z,3.28
2022-10-23T12:59:13.435Z,2.97
2022-10-23T13:01:41.695Z,2.85
2022-10-23T13:04:30.337Z,2.75
2022-10-23T13:07:00.673Z,3.20
2022-10-23T13:09:40.477Z,2.80
2022-10-23T13:12:27.159Z,3.25
2022-10-23T13:14:57.345Z,2.70
2022-10-23T13:17:39.044Z,3.03
2022-10-23T13:20:17.781Z,2.97
2022-10-23T13:22:47.185Z,2.47
2022-10-23T13:25:31.284Z,2.60
2022-10-23T13:28:21.187Z,2.67
2022-10-23T13:31:00.938Z,2.55
2022-10-23T13:33:34.652Z,2.90
2022-10-23T13:36:13.302Z,2.85
2022-10-23T13:38:42.506Z,2.75
2022-10-23T13:41:16.339Z,3.10
2022-10-23T13:43:44.532Z,2.63
2022-10-23T13:46:15.587Z,2.47
2022-10-23T13:48:42.599Z,3.13
2022-10-23T13:51:14.153Z,3.05
2022-10-23T13:53:40.964Z,2.53
2022-10-23T13:56:09.776Z,2.85
2022-10-23T13:58:36.548Z,2.78
2022-10-23T14:01:03.671Z,3.00
2022-10-23T14:03:30.431Z,3.08
2022-10-23T14:05:57.168Z,2.63
2022-10-23T14:08:23.997Z,3.20
2022-10-23T14:10:50.703Z,2.92
2022-10-23T14:13:17.518Z,3.10
2022-10-23T14:15:44.350Z,2.45
2022-10-23T14:18:11.050Z,3.10
2022-10-23T14:20:39.113Z,3.13
2022-10-23T14:23:05.759Z,2.80
2022-10-23T14:25:32.659Z,3.15
2022-10-23T14:27:59.339Z,3.22
2022-10-23T14:30:25.974Z,2.78
2022-10-23T14:32:52.706Z,3.00
2022-10-23T14:35:19.962Z,2.70
2022-10-23T14:37:47.221Z,3.42
2022-10-23T14:40:14.162Z,3.42
2022-10-23T14:42:40.833Z,3.25
2022-10-23T14:45:08.399Z,3.22
2022-10-23T14:47:35.119Z,3.33
2022-10-23T14:50:01.813Z,3.15
2022-10-23T14:52:28.519Z,2.90
2022-10-23T14:54:55.440Z,3.05
2022-10-23T14:57:22.566Z,3.70
2022-10-23T14:59:49.830Z,4.32
2022-10-23T15:02:17.310Z,3.90
2022-10-23T15:04:44.105Z,3.30
2022-10-23T15:07:10.802Z,3.30
2022-10-23T15:09:39.389Z,4.03
2022-10-23T15:12:07.471Z,3.85
2022-10-23T15:14:34.864Z,4.13
2022-10-23T15:17:01.608Z,4.15
2022-10-23T15:19:28.362Z,4.43
2022-10-23T15:21:55.153Z,5.47
2022-10-23T15:24:22.018Z,5.32
2022-10-23T15:26:49.884Z,4.45
2022-10-23T15:29:17.063Z,4.30
2022-10-23T15:31:46.877Z,3.75
2022-10-23T15:34:17.218Z,4.38
2022-10-23T15:36:45.085Z,4.50
2022-10-23T15:39:12.994Z,4.43
2022-10-23T15:41:41.258Z,4.28
2022-10-23T15:44:11.086Z,3.75
2022-10-23T15:46:37.918Z,4.00
2022-10-23T15:49:04.875Z,3.50
2022-10-23T15:51:35.870Z,3.65
2022-10-23T15:54:03.846Z,4.10
2022-10-23T15:56:30.941Z,3.83
2022-10-23T15:58:57.988Z,3.45
2022-10-23T16:01:24.854Z,4.72
2022-10-23T16:03:52.032Z,4.57
2022-10-23T16:06:20.103Z,4.25
2022-10-23T16:08:47.078Z,4.25
2022-10-23T16:11:23.464Z,3.80
2022-10-23T16:13:51.019Z,4.15
2022-10-23T16:16:18.464Z,3.90
2022-10-23T16:18:46.412Z,3.67
2022-10-23T16:21:28.160Z,4.20
2022-10-23T16:23:56.382Z,3.60
2022-10-23T16:26:23.399Z,3.42
2022-10-23T16:28:55.088Z,3.75
2022-10-23T16:31:23.464Z,3.45
2022-10-23T16:33:50.955Z,4.00
2022-10-23T16:36:18.653Z,4.47
2022-10-23T16:39:04.927Z,3.97
2022-10-23T16:41:50.527Z,3.67
2022-10-23T16:44:18.008Z,4.25
2022-10-23T16:46:56.094Z,3.80
2022-10-23T16:49:22.745Z,4.70
2022-10-23T16:51:49.509Z,5.45
2022-10-23T16:54:18.026Z,5.00
2022-10-23T16:56:45.200Z,4.65
2022-10-23T16:59:11.913Z,4.35
2022-10-23T17:01:38.866Z,5.13
2022-10-23T17:04:06.812Z,5.00
2022-10-23T17:06:34.150Z,4.43
2022-10-23T17:09:01.955Z,5.47
2022-10-23T17:11:33.518Z,5.22
2022-10-23T17:14:03.494Z,4.43
2022-10-23T17:16:37.354Z,4.60
2022-10-23T17:19:16.004Z,4.40
2022-10-23T17:21:55.351Z,4.38
2022-10-23T17:24:22.880Z,6.00
2022-10-23T17:26:49.721Z,5.05
2022-10-23T17:29:16.829Z,6.78
2022-10-23T17:31:49.095Z,7.47
2022-10-23T17:36:47.057Z,5.32
2022-10-23T17:39:16.104Z,4.70
2022-10-23T17:41:43.429Z,4.80
2022-10-23T17:44:10.506Z,4.43
2022-10-23T17:46:37.360Z,4.53
2022-10-23T17:49:05.346Z,3.90
2022-10-23T17:51:34.737Z,4.18
2022-10-23T17:54:04.786Z,3.83
2022-10-23T17:56:33.775Z,4.75
2022-10-23T17:59:07.030Z,5.88
2022-10-23T18:01:33.954Z,6.38
2022-10-23T18:04:03.058Z,5.10
2022-10-23T18:06:32.310Z,4.72
2022-10-23T18:09:00.392Z,4.10
2022-10-23T18:11:30.667Z,4.30
2022-10-23T18:16:26.898Z,3.92
2022-10-23T18:18:53.749Z,4.30
2022-10-23T18:21:22.245Z,4.13
2022-10-23T18:23:49.910Z,5.57
2022-10-23T18:26:21.696Z,4.85
2022-10-23T18:28:50.561Z,4.53
2022-10-23T18:31:18.937Z,4.05
2022-10-23T18:33:46.677Z,4.35
2022-10-23T18:36:20.405Z,4.55
2022-10-23T18:38:47.808Z,4.78
2022-10-23T18:41:15.466Z,4.70
2022-10-23T18:43:44.058Z,4.57
2022-10-23T18:46:15.167Z,4.20
2022-10-23T18:48:42.601Z,3.90
2022-10-23T18:51:18.082Z,4.65
2022-10-23T18:53:48.233Z,4.50
2022-10-23T18:56:21.455Z,4.35
2022-10-23T18:58:49.932Z,4.70
2022-10-23T19:01:17.273Z,3.65
2022-10-23T19:03:44.093Z,4.18
2022-10-23T19:06:10.926Z,4.28
2022-10-23T19:08:40.521Z,4.20
2022-10-23T19:11:08.301Z,4.10
2022-10-23T19:13:40.244Z,3.58
2022-10-23T19:16:12.554Z,4.60
2022-10-23T19:21:07.620Z,3.50
2022-10-23T19:23:37.110Z,3.53
2022-10-23T19:26:09.316Z,4.20
2022-10-23T19:28:42.334Z,4.07
2022-10-23T19:31:10.415Z,4.40
2022-10-23T19:33:39.021Z,3.63
2022-10-23T19:36:10.060Z,3.67
2022-10-23T19:38:40.194Z,3.92
2022-10-23T19:41:10.531Z,3.72
2022-10-23T19:43:42.032Z,3.13
2022-10-23T19:46:11.261Z,3.33
2022-10-23T19:48:43.505Z,3.28
2022-10-23T19:51:10.487Z,3.85
2022-10-23T19:53:37.718Z,3.47
2022-10-23T19:56:06.467Z,3.20
2022-10-23T19:58:33.437Z,3.88
2022-10-23T20:01:16.829Z,2.92
2022-10-23T20:03:45.513Z,3.83
2022-10-23T20:06:14.686Z,3.65
2022-10-23T20:08:41.711Z,3.55
2022-10-23T20:11:09.861Z,3.55
2022-10-23T20:13:36.627Z,3.38
2022-10-23T20:16:03.555Z,2.83
2022-10-23T20:18:31.076Z,2.42
2022-10-23T20:21:01.280Z,2.53
2022-10-23T20:23:28.031Z,2.45
2022-10-23T20:25:54.670Z,2.67
2022-10-23T20:28:21.692Z,2.30
2022-10-23T20:30:48.403Z,2.17
2022-10-23T20:33:15.171Z,1.70
2022-10-23T20:35:42.612Z,1.98
2022-10-23T20:38:09.701Z,1.75
2022-10-23T20:40:36.543Z,1.70
2022-10-23T20:43:03.542Z,1.52
2022-10-23T20:45:30.211Z,1.85
2022-10-23T20:47:57.170Z,1.77
2022-10-23T20:50:24.012Z,1.42
2022-10-23T20:52:51.313Z,1.45
2022-10-23T20:55:18.348Z,1.58
2022-10-23T20:57:45.333Z,1.60
2022-10-23T21:00:12.925Z,1.45
2022-10-23T21:02:39.707Z,1.73
2022-10-23T21:05:07.022Z,1.33
2022-10-23T21:07:33.673Z,1.00
2022-10-23T21:10:01.021Z,1.65
2022-10-23T21:12:27.714Z,1.35
2022-10-23T21:14:54.397Z,1.30
2022-10-23T21:17:21.129Z,1.02
2022-10-23T21:19:47.890Z,1.08
2022-10-23T21:22:14.581Z,1.23
2022-10-23T21:24:41.301Z,0.90
2022-10-23T21:27:07.997Z,1.30
2022-10-23T21:29:34.676Z,0.95
2022-10-23T21:32:01.612Z,1.10
2022-10-23T21:34:29.126Z,1.15
2022-10-23T21:39:43.736Z,1.05
2022-10-23T21:42:15.164Z,1.20
2022-10-23T21:44:41.977Z,1.20
2022-10-23T21:47:08.821Z,1.10
2022-10-23T21:49:35.788Z,1.30
2022-10-23T21:52:03.289Z,1.20
2022-10-23T21:54:29.939Z,1.10
2022-10-23T21:56:56.672Z,1.25
2022-10-23T21:59:27.803Z,1.27
2022-10-23T22:01:57.113Z,1.35
2022-10-23T22:04:23.906Z,1.27
2022-10-23T22:06:50.665Z,1.15
2022-10-23T22:09:19.753Z,1.45
2022-10-23T22:11:48.376Z,1.30
2022-10-23T22:14:15.067Z,1.33
2022-10-23T22:16:42.097Z,1.27
2022-10-23T22:19:12.259Z,1.40
2022-10-23T22:21:40.616Z,1.27
2022-10-23T22:24:08.128Z,1.45
2022-10-23T22:26:38.115Z,1.60
2022-10-23T22:29:07.648Z,1.30
2022-10-23T22:31:35.741Z,1.75
2022-10-23T22:34:13.317Z,1.52
2022-10-23T22:36:52.062Z,1.60
2022-10-23T22:39:18.759Z,1.85
2022-10-23T22:41:46.450Z,1.52
2022-10-23T22:44:14.759Z,1.65
2022-10-23T22:46:42.096Z,1.92
2022-10-23T22:49:08.916Z,1.55
2022-10-23T22:51:36.816Z,2.20
2022-10-23T22:54:03.520Z,1.88
2022-10-23T22:56:30.755Z,1.48
2022-10-23T22:58:57.907Z,1.58
2022-10-23T23:01:28.658Z,1.52
2022-10-23T23:03:58.209Z,1.45
2022-10-23T23:06:28.535Z,1.45
2022-10-23T23:08:55.832Z,1.67
2022-10-23T23:11:23.178Z,1.42
2022-10-23T23:13:50.799Z,1.90
2022-10-23T23:16:21.860Z,1.92
2022-10-23T23:18:49.736Z,1.58
2022-10-23T23:21:17.520Z,1.70
2022-10-23T23:23:44.697Z,1.95
2022-10-23T23:26:14.118Z,1.90
2022-10-23T23:28:41.117Z,1.70
2022-10-23T23:31:11.724Z,1.92
2022-10-23T23:33:38.623Z,1.52
2022-10-23T23:36:10.803Z,1.77
2022-10-23T23:38:38.520Z,2.03
2022-10-23T23:41:06.784Z,2.05
2022-10-23T23:43:33.623Z,2.40
2022-10-23T23:46:00.357Z,2.05
2022-10-23T23:48:27.063Z,2.70
2022-10-23T23:50:53.779Z,2.10
2022-10-23T23:53:20.591Z,2.30
2022-10-23T23:55:47.397Z,2.42
2022-10-23T23:58:14.456Z,2.47
